Golden Triangle Regional Airport Columbus, W Point, Starkville US
ICAO: KGTR
IATA: GTR
Category: Medium
Scheduled Services: Yes

Elevation: 264 ft
TransAlt. 18000 ft.

Airport Communications:
COLUMBUS APP/DEP:135.6
ATIS:126.375
AWOS 3:126.375
COLUMBUS CLNC DEL:126.25
CTAF:120.025
GND/CLNC DEL:135.375
TWR:120.025
UNICOM:122.8

KGTR Zoom In..

Runways:

(A) RW 18 length 8003 ft width 150 ft
ILS 110.70 / hdg 182

(B) RW 36 length 8003 ft width 150 ft
ILS 111.15 / hdg 2

Location; KGTR
Day. 25 / Time. 11.56 Zulu
* Altimeter: 30.04
* Temperature: 12° c. 53.6°f.
* Wind from: 280° Speed 03 kn.
Dewpoint: 12° c.
Visibility: 9 Statute Miles.
Clouds: Clear (automated report).

KGTR 251156Z 28003KT 9SM CLR 12/12 A3004 RMK AO2 SLP174 T01220117 10144 20117 53009


Wind From 280°
Speed 03 kn.

  YouTube Music Video
 
jpsmedia.com for Web Design  worldairports.se 2018   terms of use